Tiempo atmosférico en la estación meteorológica de Peraleda Del Zaucejo, Badajoz (542 m.)



Fecha
DESCASC
Temp. máxima en grados centígrados (hora)
DESCASC
Temp. mínima en grados centígrados (hora)
DESCASC
Temp. media en grados centígrados
DESCASC
Racha de viento máxima en m/sg (hora)
DESCASC
Velocidad máxima media en intervalos de 10 minutos(hora)
DESCASC
Precipitaciones diarias en mm
DESCASC
Precipitaciones de 00:00 a 06:00 en mm
DESCASC
Precipitaciones de 06:00 a 12:00 en mm
DESCASC
Precipitaciones de 12:00 a 18:00 en mm
DESCASC
Precipitaciones de 18:00 a 24:00 en mm
DESCASC
23-06-2019 32.7 (17:00) 13.8 (07:20) 23.3 8.89 (17:10) 5.28 (02:20) 0 0 0 0 0
22-06-2019 32.5 (17:20) 12 (07:10) 22.3 7.78 (17:30) 4.44 (18:20) 0 0 0 0 0
21-06-2019 28.6 (18:30) 11 (07:10) 19.8 8.33 (01:10) 5 (03:00) 0 0 0 0 0
20-06-2019 28.1 (16:40) 15.3 (00:00) 21.7 9.72 (17:20) 5.83 (17:20) 0 0 0 0 0
19-06-2019 27.4 (18:00) 14.2 (00:00) 20.8 11.11 (16:20) 5.28 (17:00) 0 0 0 0 0
18-06-2019 28.5 (16:40) 16.2 (00:00) 22.4 11.94 (20:00) 7.22 (16:20) 0 0 0 0 0
17-06-2019 30.6 (16:50) 11.4 (00:00) 21 12.78 (16:50) 6.11 (19:40) 0 0 0 0 0
16-06-2019 29.1 (16:10) 9.7 (00:00) 19.4 8.61 (18:40) 5.83 (18:40) 0 0 0 0 0
15-06-2019 25.9 (18:30) 9.4 (00:00) 17.6 7.22 (17:40) 3.89 (01:10) 0 0 0 0 0
14-06-2019 21.7 (17:00) 9.6 (00:00) 15.7 13.33 (17:10) 7.22 (18:30) 0 0 0 0 0
13-06-2019 28.1 (17:20) 9.9 (00:00) 19 9.44 (16:20) 5.56 (19:50) 0 0 0 0 0
12-06-2019 28.3 (18:10) 9.6 (00:00) 18.9 8.89 (19:10) 5 (19:50) 0 0 0 0 0
11-06-2019 25 (19:00) 11.3 (00:00) 18.2 12.22 (00:30) 8.33 (00:30) 0 0 0 0 0
10-06-2019 26 (18:30) 10.7 (00:00) 18.3 10.83 (23:50) 6.67 (23:40) 0 0 0 0 0
09-06-2019 26.1 (17:10) 11.5 (00:00) 18.8 10.83 (02:10) 7.5 (02:00) 0 0 0 0 0
08-06-2019 29.6 (18:00) 8.5 (00:00) 19.1 9.17 (21:20) 5 (17:50) 0 0 0 0 0
07-06-2019 22.4 (18:10) 10 (00:00) 16.2 11.94 (02:40) 7.78 (00:10) 0 0 0 0 0
06-06-2019 25.1 (16:50) 9.3 (00:00) 17.2 13.61 (20:10) 8.33 (23:00) 0 0 0 0 0
05-06-2019 21.2 (18:10) 10.1 (00:00) 15.7 12.78 (00:50) 8.06 (01:00) 0 0 0 0 0
04-06-2019 28.2 (16:50) 14.7 (00:00) 21.5 12.5 (20:30) 8.61 (20:30) 0 0 0 0 0
03-06-2019 34.7 (17:50) 16.5 (00:00) 25.6 9.72 (18:10) 5.28 (16:30) 0 0 0 0 0
02-06-2019 34.7 (19:30) 12.8 (00:00) 23.8 8.33 (14:20) 4.17 (00:20) 0 0 0 0 0
01-06-2019 33.9 (19:00) 11.7 (00:00) 22.8 9.17 (15:00) 5 (15:40) 0 0 0 0 0
31-05-2019 33.2 (18:00) 10.8 (00:00) 22 10.83 (15:40) 5.56 (23:20) 0 0 0 0 0
30-05-2019 31.7 (17:30) 14.1 (00:00) 22.9 10 (11:50) 5.28 (15:50) 0 0 0 0 0
29-05-2019 29.7 (18:40) 16.8 (00:00) 23.3 12.5 (12:50) 7.22 (10:00) 0 0 0 0 0
28-05-2019 31.6 (17:30) 15.6 (00:00) 23.6 9.72 (00:10) 5.83 (00:10) 0 0 0 0 0
27-05-2019 31.9 (17:30) 11.9 (00:00) 21.9 15.28 (17:30) 8.06 (23:40) 0 0 0 0 0

Gráficas

Temp. máximas Temp. mínimas Temp. medias Precipitaciones Rachas de viento máximas Velocidades máximas media en intervalos de 10 minutos

Datos horarios

Fecha y hora oficial Temperatura (ºC) Velocidad del viento (km/h) Dirección del viento Racha (km/h) Dirección de racha Precipitación (mm) Presión (hPa) Tendencia (hPa) Humedad (%)
2019-06-25 23:00:00 26.3 12 Sudoeste 22 Sudoeste 0 -- -- 34
2019-06-25 22:00:00 28 13 Sudoeste 25 Sur 0 -- -- 32
2019-06-25 21:00:00 30.3 14 Sudoeste 28 Sudoeste 0 -- -- 30
2019-06-25 20:00:00 31.4 20 Sur 36 Sudoeste 0 -- -- 27
2019-06-25 19:00:00 32.6 17 Sur 32 Sudoeste 0 -- -- 24
2019-06-25 18:00:00 32.5 21 Sudoeste 34 Sur 0 -- -- 24
2019-06-25 17:00:00 32.3 20 Sudoeste 33 Sur 0 -- -- 25
2019-06-25 16:00:00 32 16 Sur 32 Sudoeste 0 -- -- 28
2019-06-25 15:00:00 31 15 Sudoeste 32 Sudoeste 0 -- -- 31
2019-06-25 14:00:00 29.7 10 Sudoeste 31 Sur 0 -- -- 34
2019-06-25 13:00:00 28.3 14 Sudoeste 27 Sur 0 -- -- 37
2019-06-25 12:00:00 26.8 17 Sur 26 Sur 0 -- -- 40
2019-06-25 11:00:00 25 9 Sudeste 18 Sur 0 -- -- 50
2019-06-25 10:00:00 23 8 Este 15 Este 0 -- -- 50
2019-06-25 09:00:00 20.6 3 Este 7 Nordeste 0 -- -- 55
2019-06-25 08:00:00 16.4 2 Noroeste 8 Noroeste 0 -- -- 69
2019-06-25 07:00:00 14.6 3 Sudeste 4 Sudeste 0 -- -- 74
2019-06-25 06:00:00 14.5 2 Noroeste 4 Noroeste 0 -- -- 75
2019-06-25 05:00:00 15.2 3 Noroeste 4 Noroeste 0 -- -- 72
2019-06-25 04:00:00 16.9 2 Sudeste 3 Este 0 -- -- 67
2019-06-25 03:00:00 18.3 3 Sudeste 7 Sudoeste 0 -- -- 62
2019-06-25 02:00:00 18.6 0 Calma 9 Noroeste 0 -- -- 61
2019-06-25 01:00:00 19.5 8 Noroeste 15 Norte 0 -- -- 57
2019-06-25 00:00:00 21 6 Norte 17 Norte 0 -- -- 54
2019-06-24 23:00:00 23.5 7 Noroeste 15 Norte 0 -- -- 56
2019-06-24 22:00:00 25.2 8 Noroeste 22 Norte 0 -- -- 56
2019-06-24 21:00:00 27.6 14 Noroeste 27 Noroeste 0 -- -- 50
2019-06-24 20:00:00 29 19 Oeste 37 Noroeste 0 -- -- 44
2019-06-24 19:00:00 30.9 21 Noroeste 38 Sudoeste 0 -- -- 38
2019-06-24 18:00:00 31.6 17 Sudoeste 35 Sudoeste 0 -- -- 27
2019-06-24 17:00:00 31.4 16 Sudoeste 31 Sur 0 -- -- 26
2019-06-24 16:00:00 31.2 18 Oeste 32 Sudoeste 0 -- -- 25
2019-06-24 15:00:00 30.6 19 Sudoeste 36 Oeste 0 -- -- 26
2019-06-24 14:00:00 29.8 17 Sur 32 Sudoeste 0 -- -- 26
2019-06-24 13:00:00 28.3 15 Sudoeste 31 Sur 0 -- -- 29
2019-06-24 12:00:00 26.9 14 Sur 26 Sur 0 -- -- 35
2019-06-24 11:00:00 25.4 9 Sur 17 Sur 0 -- -- 42
2019-06-24 10:00:00 23.3 7 Sudeste 14 Sudeste 0 -- -- 62
2019-06-24 09:00:00 20.4 0 Calma 4 Noroeste 0 -- -- 66
2019-06-24 08:00:00 19.2 2 Este 10 Oeste 0 -- -- 66
2019-06-24 07:00:00 19.2 6 Oeste 15 Sudoeste 0 -- -- 70
2019-06-24 06:00:00 18.5 5 Sudoeste 13 Sudoeste 0 -- -- 71
2019-06-24 05:00:00 19.6 4 Sudoeste 9 Oeste 0 -- -- 69
2019-06-24 04:00:00 20.3 3 Oeste 18 Oeste 0 -- -- 66
2019-06-24 03:00:00 21 12 Oeste 18 Oeste 0 -- -- 63
2019-06-24 02:00:00 22.3 2 Noroeste 16 Oeste 0 -- -- 59
2019-06-24 01:00:00 22.9 10 Oeste 15 Noroeste 0 -- -- 56
2019-06-24 00:00:00 24 2 Noroeste 13 Norte 0 -- -- 30
2019-06-23 23:00:00 25.2 8 Noroeste 19 Noroeste 0 -- -- 26
2019-06-23 22:00:00 26.8 10 Noroeste 18 Noroeste 0 -- -- 27
2019-06-23 21:00:00 28.9 10 Noroeste 21 Sudoeste 0 -- -- 29
2019-06-23 20:00:00 31.2 13 Sudoeste 25 Oeste 0 -- -- 30
2019-06-23 19:00:00 32 8 Oeste 26 Sudoeste 0 -- -- 28
2019-06-23 18:00:00 32.2 15 Sudoeste 32 Oeste 0 -- -- 28
2019-06-23 17:00:00 32.7 15 Sudoeste 27 Sudoeste 0 -- -- 26
2019-06-23 16:00:00 32.4 10 Oeste 24 Oeste 0 -- -- 25
2019-06-23 15:00:00 30.9 9 Sur 23 Sur 0 -- -- 26
2019-06-23 14:00:00 30 8 Sudoeste 22 Oeste 0 -- -- 26
2019-06-23 13:00:00 28.6 11 Oeste 21 Oeste 0 -- -- 28
2019-06-23 12:00:00 27.6 10 Sur 21 Sudeste 0 -- -- 30
2019-06-23 11:00:00 26.6 7 Sudoeste 17 Sur 0 -- -- 27
2019-06-23 10:00:00 23.9 4 Sudeste 8 Sudeste 0 -- -- 29
2019-06-23 09:00:00 19.9 0 Calma 5 Noroeste 0 -- -- 35
2019-06-23 08:00:00 15.5 0 Calma 5 Noroeste 0 -- -- 43
2019-06-23 07:00:00 14.3 3 Noroeste 11 Sudoeste 0 -- -- 45
2019-06-23 06:00:00 16.1 0 Calma 19 Sudoeste 0 -- -- 41
2019-06-23 05:00:00 17.8 11 Sudoeste 15 Oeste 0 -- -- 37
2019-06-23 04:00:00 18.6 4 Noroeste 13 Oeste 0 -- -- 35
2019-06-23 03:00:00 21.2 6 Noroeste 28 Noroeste 0 -- -- 31
2019-06-23 02:00:00 22.3 6 Noroeste 28 Oeste 0 -- -- 28
2019-06-23 01:00:00 22.4 13 Oeste 19 Oeste 0 -- -- 31
2019-06-23 00:00:00 24.3 7 Oeste 20 Oeste 0 -- -- 33
2019-06-22 23:00:00 26 12 Oeste 19 Sudoeste 0 -- -- 29
2019-06-22 22:00:00 27.6 13 Sudoeste 19 Sudoeste 0 -- -- 27
2019-06-22 21:00:00 30.3 12 Sudoeste 21 Sur 0 -- -- 22
2019-06-22 20:00:00 31.5 8 Sudoeste 25 Sur 0 -- -- 20
2019-06-22 19:00:00 32.1 13 Sudoeste 27 Sudoeste 0 -- -- 20
2019-06-22 18:00:00 32.4 9 Sur 28 Oeste 0 -- -- 22
2019-06-22 17:00:00 31.9 14 Sudeste 28 Sur 0 -- -- 23
2019-06-22 16:00:00 31.5 13 Sur 28 Sur 0 -- -- 25
2019-06-22 15:00:00 30.6 7 Oeste 23 Sudoeste 0 -- -- 24
2019-06-22 14:00:00 30.1 8 Sudoeste 22 Sur 0 -- -- 25
2019-06-22 13:00:00 28.9 11 Sur 23 Sur 0 -- -- 26
2019-06-22 12:00:00 28 7 Sudoeste 17 Sudoeste 0 -- -- 32
2019-06-22 11:00:00 26.1 6 Este 10 Este 0 -- -- 37
2019-06-22 10:00:00 22.8 2 Sudeste 5 Este 0 -- -- 47
2019-06-22 09:00:00 18.1 0 Calma 6 Norte 0 -- -- 57
2019-06-22 08:00:00 13.6 0 Calma 4 Noroeste 0 -- -- 69
2019-06-22 07:00:00 12.1 0 Calma 6 Noroeste 0 -- -- 72
2019-06-22 06:00:00 13.2 0 Calma 4 Noroeste 0 -- -- 68
2019-06-22 05:00:00 14.4 0 Calma 8 Este 0 -- -- 66
2019-06-22 04:00:00 16.2 0 Calma 6 Sudeste 0 -- -- 60
2019-06-22 03:00:00 18.9 4 Sudeste 15 Noroeste 0 -- -- 54
2019-06-22 02:00:00 21.7 9 Noroeste 19 Norte 0 -- -- 46
2019-06-22 01:00:00 19.3 5 Noroeste 9 Oeste 0 -- -- 45
2019-06-22 00:00:00 19.9 4 Norte 8 Noroeste 0 -- -- 43
2019-06-21 23:00:00 22.5 6 Noroeste 16 Oeste 0 -- -- 38
2019-06-21 22:00:00 24.3 8 Oeste 14 Oeste 0 -- -- 35
2019-06-21 21:00:00 26.5 7 Noroeste 17 Noroeste 0 -- -- 32
2019-06-21 20:00:00 27.2 5 Noroeste 19 Noroeste 0 -- -- 26
2019-06-21 19:00:00 27.5 10 Norte 23 Norte 0 -- -- 28
2019-06-21 18:00:00 28.2 10 Norte 28 Noroeste 0 -- -- 29
2019-06-21 17:00:00 27.7 7 Oeste 26 Norte 0 -- -- 31
2019-06-21 16:00:00 27 10 Norte 25 Nordeste 0 -- -- 32
2019-06-21 15:00:00 26 8 Norte 22 Noroeste 0 -- -- 35
2019-06-21 14:00:00 25.1 8 Nordeste 27 Noroeste 0 -- -- 37
2019-06-21 13:00:00 24.1 5 Sudoeste 16 Nordeste 0 -- -- 40
2019-06-21 12:00:00 22 8 Noroeste 14 Oeste 0 -- -- 47
2019-06-21 11:00:00 19.7 7 Noroeste 20 Oeste 0 -- -- 56
2019-06-21 10:00:00 17.8 4 Norte 14 Oeste 0 -- -- 64
2019-06-21 09:00:00 15.2 4 Noroeste 18 Oeste 0 -- -- 74
2019-06-21 08:00:00 12.2 8 Oeste 15 Sudoeste 0 -- -- 87
2019-06-21 07:00:00 11.2 9 Sudoeste 13 Noroeste 0 -- -- 87
2019-06-21 06:00:00 12.9 5 Norte 23 Oeste 0 -- -- 82
2019-06-21 05:00:00 13.6 11 Noroeste 27 Oeste 0 -- -- 78
2019-06-21 04:00:00 14.4 12 Oeste 24 Oeste 0 -- -- 74
2019-06-21 03:00:00 16.1 18 Noroeste 29 Noroeste 0 -- -- 66
2019-06-21 02:00:00 17.3 16 Noroeste 30 Noroeste 0 -- -- 62
2019-06-21 01:00:00 18.4 15 Noroeste 28 Noroeste 0 -- -- 57
2019-06-21 00:00:00 19.7 17 Noroeste 31 Noroeste 0 -- -- 54
2019-06-20 23:00:00 20.8 15 Noroeste 28 Noroeste 0 -- -- 50
2019-06-20 22:00:00 22.1 18 Noroeste 28 Oeste 0 -- -- 45
2019-06-20 21:00:00 23.9 19 Noroeste 35 Noroeste 0 -- -- 39
2019-06-20 20:00:00 26.8 20 Noroeste 31 Oeste 0 -- -- 36
2019-06-20 19:00:00 27.3 18 Noroeste 28 Noroeste 0 -- -- 37
2019-06-20 18:00:00 27.4 17 Oeste 35 Oeste 0 -- -- 36
2019-06-20 17:00:00 26.7 10 Noroeste 29 Oeste 0 -- -- 36
2019-06-20 16:00:00 26.6 15 Sudoeste 32 Sudoeste 0 -- -- 36
2019-06-20 15:00:00 26.3 10 Sur 24 Oeste 0 -- -- 37
2019-06-20 14:00:00 25.6 12 Sudoeste 25 Sudoeste 0 -- -- 41
2019-06-20 13:00:00 23.4 9 Sur 23 Sudoeste 0 -- -- 47
2019-06-20 12:00:00 22.6 12 Oeste 21 Oeste 0 -- -- 54
2019-06-20 11:00:00 21.3 4 Nordeste 9 Noroeste 0 -- -- 59
2019-06-20 10:00:00 20.4 4 Noroeste 11 Norte 0 -- -- 63
2019-06-20 09:00:00 19.4 3 Sudeste 9 Este 0 -- -- 66
2019-06-20 08:00:00 16.8 0 Calma 11 Oeste 0 -- -- 77
2019-06-20 07:00:00 15.4 9 Oeste 14 Noroeste 0 -- -- 81
2019-06-20 06:00:00 16.1 6 Noroeste 14 Noroeste 0 -- -- 77
2019-06-20 05:00:00 16.6 6 Noroeste 15 Noroeste 0 -- -- 74
2019-06-20 04:00:00 17.1 8 Noroeste 22 Oeste 0 -- -- 70
2019-06-20 03:00:00 18.3 11 Noroeste 22 Noroeste 0 -- -- 67
2019-06-20 02:00:00 19.1 9 Noroeste 17 Noroeste 0 -- -- 67
2019-06-20 01:00:00 18.4 4 Oeste 9 Oeste 0 -- -- 64
2019-06-20 00:00:00 18.5 6 Oeste 11 Norte 0 -- -- 62
2019-06-19 23:00:00 20.9 10 Noroeste 22 Noroeste 0 -- -- 56
2019-06-19 22:00:00 22.3 13 Noroeste 27 Norte 0 -- -- 51
2019-06-19 21:00:00 25.1 14 Noroeste 21 Noroeste 0 -- -- 42
2019-06-19 20:00:00 26.5 12 Norte 27 Noroeste 0 -- -- 38
2019-06-19 19:00:00 27.2 10 Oeste 28 Oeste 0 -- -- 36
2019-06-19 18:00:00 27.4 10 Oeste 29 Sudoeste 0 -- -- 35
2019-06-19 17:00:00 27.1 19 Oeste 40 Oeste 0 -- -- 36
2019-06-19 16:00:00 25.9 17 Oeste 32 Oeste 0 -- -- 38
2019-06-19 15:00:00 25.1 14 Oeste 29 Oeste 0 -- -- 41
2019-06-19 14:00:00 23.6 10 Noroeste 25 Sudoeste 0 -- -- 46
2019-06-19 13:00:00 22.8 11 Sur 22 Oeste 0 -- -- 47
2019-06-19 12:00:00 20.7 8 Noroeste 19 Sudoeste 0 -- -- 56
2019-06-19 11:00:00 19.2 9 Oeste 16 Sudoeste 0 -- -- 64
2019-06-19 10:00:00 18.8 8 Sudoeste 13 Oeste 0 -- -- 67
2019-06-19 09:00:00 17.8 5 Sudoeste 13 Sudoeste 0 -- -- 70
2019-06-19 08:00:00 16.6 8 Oeste 14 Sudoeste 0 -- -- 76
2019-06-19 07:00:00 15.5 8 Oeste 12 Oeste 0 -- -- 81
2019-06-19 06:00:00 14.3 4 Sudoeste 8 Oeste 0 -- -- 84
2019-06-19 05:00:00 14.8 6 Oeste 13 Oeste 0 -- -- 82
2019-06-19 04:00:00 16.6 9 Oeste 17 Sudoeste 0 -- -- 77
2019-06-19 03:00:00 16.8 11 Oeste 15 Oeste 0 -- -- 74
2019-06-19 02:00:00 17.2 7 Sudoeste 18 Oeste 0 -- -- 69
2019-06-19 01:00:00 18.4 8 Oeste 15 Sudoeste 0 -- -- 66
2019-06-19 00:00:00 19.4 12 Sudoeste 18 Sudoeste 0 -- -- 61
2019-06-18 23:00:00 21 7 Oeste 26 Noroeste 0 -- -- 54
2019-06-18 22:00:00 22.2 15 Oeste 40 Oeste 0 -- -- 50
2019-06-18 21:00:00 24.5 19 Oeste 42 Oeste 0 -- -- 45
2019-06-18 20:00:00 26.4 23 Oeste 43 Noroeste 0 -- -- 41
2019-06-18 19:00:00 27.8 19 Sudoeste 35 Sudoeste 0 -- -- 34
2019-06-18 18:00:00 28 19 Sudoeste 37 Oeste 0 -- -- 32
2019-06-18 17:00:00 28.5 22 Sudoeste 39 Sudoeste 0 -- -- 32
2019-06-18 16:00:00 27.9 20 Sudoeste 40 Sudoeste 0 -- -- 30
2019-06-18 15:00:00 27.2 23 Sudoeste 39 Sudoeste 0 -- -- 30
2019-06-18 14:00:00 26.4 19 Sur 36 Sudoeste 0 -- -- 29
2019-06-18 13:00:00 25.7 20 Sudoeste 36 Sudoeste 0 -- -- 18
2019-06-18 12:00:00 24.7 19 Sudoeste 32 Sudoeste 0 -- -- 13
2019-06-18 11:00:00 23.1 22 Sudoeste 33 Oeste 0 -- -- 13
2019-06-18 10:00:00 21.3 17 Sudoeste 28 Sudoeste 0 -- -- 18
2019-06-18 09:00:00 19.6 11 Sur 19 Sudoeste 0 -- -- 28
2019-06-18 08:00:00 17.9 8 Sur 16 Sudeste 0 -- -- 29
2019-06-18 07:00:00 16.3 4 Sur 11 Sudeste 0 -- -- 38
2019-06-18 06:00:00 17.6 6 Sur 12 Sur 0 -- -- 39
2019-06-18 05:00:00 18.1 10 Sudoeste 15 Sudoeste 0 -- -- 38
2019-06-18 04:00:00 18.5 9 Sudoeste 24 Sudoeste 0 -- -- 31
2019-06-18 03:00:00 20.1 11 Sur 21 Sur 0 -- -- 25
2019-06-18 02:00:00 20.9 9 Sur 15 Sudeste 0 -- -- 27
2019-06-18 01:00:00 21.8 6 Sur 17 Sudoeste 0 -- -- 26
2019-06-18 00:00:00 22.5 9 Sudoeste 21 Sudoeste 0 -- -- 26
2019-06-17 23:00:00 23.6 13 Sudoeste 21 Sudoeste 0 -- -- 25
2019-06-17 22:00:00 25 17 Sudoeste 27 Sur 0 -- -- 27
2019-06-17 21:00:00 27.6 17 Sudoeste 31 Sudoeste 0 -- -- 20
2019-06-17 20:00:00 28.7 21 Sudoeste 36 Sudoeste 0 -- -- 17
2019-06-17 19:00:00 29.8 21 Sudoeste 37 Sudoeste 0 -- -- 15
2019-06-17 18:00:00 30.1 19 Sudoeste 37 Sudoeste 0 -- -- 15
2019-06-17 17:00:00 30.2 20 Sudoeste 46 Sudoeste 0 -- -- 16
2019-06-17 16:00:00 30.3 19 Sudoeste 39 Sur 0 -- -- 18
2019-06-17 15:00:00 29.3 15 Sur 30 Sudoeste 0 -- -- 20
2019-06-17 14:00:00 28 18 Sudeste 34 Sudeste 0 -- -- 23
2019-06-17 13:00:00 27 13 Sur 29 Sudeste 0 -- -- 25
2019-06-17 12:00:00 25.2 13 Sur 28 Sudoeste 0 -- -- 30
2019-06-17 11:00:00 23.5 10 Sur 22 Sudoeste 0 -- -- 32
2019-06-17 10:00:00 21.3 6 Sur 16 Sudeste 0 -- -- 34
2019-06-17 09:00:00 17.5 0 Calma 4 Noroeste 0 -- -- 41
2019-06-17 08:00:00 12.8 2 Noroeste 4 Este 0 -- -- 52
2019-06-17 07:00:00 12 2 Sudeste 10 Sudoeste 0 -- -- 54
2019-06-17 06:00:00 12.5 3 Sudoeste 10 Sudoeste 0 -- -- 51
2019-06-17 05:00:00 14.7 5 Oeste 13 Sudoeste 0 -- -- 46
2019-06-17 04:00:00 14.9 9 Sudoeste 14 Oeste 0 -- -- 46
2019-06-17 03:00:00 16.4 8 Sudoeste 22 Sudoeste 0 -- -- 43
2019-06-17 02:00:00 19.3 17 Sudoeste 23 Sudoeste 0 -- -- 36
2019-06-17 01:00:00 19 14 Sudoeste 19 Sudoeste 0 -- -- 37
2019-06-17 00:00:00 19.6 10 Sudoeste 18 Sudoeste 0 -- -- 36
2019-06-16 23:00:00 22.2 13 Sudoeste 22 Sudoeste 0 -- -- 33
2019-06-16 22:00:00 24.3 11 Sudoeste 28 Sudoeste 0 -- -- 31
2019-06-16 21:00:00 27.1 17 Sudoeste 26 Sudoeste 0 -- -- 24
2019-06-16 20:00:00 28.3 17 Sudoeste 31 Sudoeste 0 -- -- 20
2019-06-16 19:00:00 28.8 17 Sudoeste 31 Sudoeste 0 -- -- 18
2019-06-16 18:00:00 28.9 13 Sudoeste 26 Sudoeste 0 -- -- 21
2019-06-16 17:00:00 28.1 19 Sudoeste 28 Oeste 0 -- -- 20
2019-06-16 16:00:00 28.9 17 Sudoeste 28 Sudoeste 0 -- -- 20
2019-06-16 15:00:00 28.9 12 Sudoeste 27 Oeste 0 -- -- 21
2019-06-16 14:00:00 27.4 9 Oeste 21 Sudoeste 0 -- -- 25
2019-06-16 13:00:00 26.1 8 Oeste 21 Sudoeste 0 -- -- 26
2019-06-16 12:00:00 25.3 4 Noroeste 14 Este 0 -- -- 26
2019-06-16 11:00:00 23.3 5 Este 13 Este 0 -- -- 29
2019-06-16 10:00:00 21.3 4 Este 7 Este 0 -- -- 34
2019-06-16 09:00:00 16.3 0 Calma 2 Este 0 -- -- 43
2019-06-16 08:00:00 11.4 0 Calma 3 Noroeste 0 -- -- 56
2019-06-16 07:00:00 10 2 Noroeste 5 Noroeste 0 -- -- 57
2019-06-16 06:00:00 10.2 0 Calma 4 Noroeste 0 -- -- 56
2019-06-16 05:00:00 10.4 3 Noroeste 4 Noroeste 0 -- -- 57
2019-06-16 04:00:00 11.6 2 Noroeste 4 Noroeste 0 -- -- 52
2019-06-16 03:00:00 11.8 0 Calma 3 Noroeste 0 -- -- 51
2019-06-16 02:00:00 13.4 2 Noroeste 3 Noroeste 0 -- -- 47
2019-06-16 01:00:00 15.2 4 Sudeste 6 Sudeste 0 -- -- 42
2019-06-16 00:00:00 18 3 Noroeste 11 Norte 0 -- -- 36
2019-06-15 23:00:00 18.8 2 Norte 15 Noroeste 0 -- -- 34
2019-06-15 22:00:00 21 5 Norte 15 Nordeste 0 -- -- 30
2019-06-15 21:00:00 24.3 10 Norte 19 Norte 0 -- -- 27
2019-06-15 20:00:00 25.6 9 Norte 18 Noroeste 0 -- -- 26
2019-06-15 19:00:00 25.7 12 Noroeste 22 Noroeste 0 -- -- 25
2019-06-15 18:00:00 25.5 7 Norte 26 Noroeste 0 -- -- 25
2019-06-15 17:00:00 24.6 8 Sur 22 Oeste 0 -- -- 26
2019-06-15 16:00:00 24.5 11 Sudoeste 23 Sudoeste 0 -- -- 27
2019-06-15 15:00:00 23.4 11 Noroeste 21 Norte 0 -- -- 30
2019-06-15 14:00:00 21.7 9 Norte 22 Nordeste 0 -- -- 33
2019-06-15 13:00:00 20.5 9 Nordeste 20 Nordeste 0 -- -- 36
2019-06-15 12:00:00 19 10 Noroeste 21 Noroeste 0 -- -- 42
2019-06-15 11:00:00 18.1 8 Norte 18 Norte 0 -- -- 45
2019-06-15 10:00:00 16.6 4 Sudeste 11 Noroeste 0 -- -- 52
2019-06-15 09:00:00 14.9 5 Este 11 Nordeste 0 -- -- 59
2019-06-15 08:00:00 12.4 0 Calma 6 Sudoeste 0 -- -- 70
2019-06-15 07:00:00 9.6 0 Calma 6 Oeste 0 -- -- 76
2019-06-15 06:00:00 9.8 3 Oeste 14 Oeste 0 -- -- 74
2019-06-15 05:00:00 12.2 8 Noroeste 16 Noroeste 0 -- -- 66
2019-06-15 04:00:00 12.7 10 Noroeste 20 Noroeste 0 -- -- 64
2019-06-15 03:00:00 13.3 10 Noroeste 25 Oeste 0 -- -- 60
2019-06-15 02:00:00 14.1 13 Noroeste 24 Noroeste 0 -- -- 57
2019-06-15 01:00:00 14.7 13 Noroeste 21 Noroeste 0 -- -- 54
2019-06-15 00:00:00 15.1 11 Noroeste 21 Noroeste 0 -- -- 51
2019-06-14 23:00:00 16.3 13 Noroeste 23 Noroeste 0 -- -- 45
2019-06-14 22:00:00 17.2 14 Noroeste 24 Noroeste 0 -- -- 42
2019-06-14 21:00:00 19 16 Noroeste 30 Oeste 0 -- -- 38
2019-06-14 20:00:00 20.4 15 Noroeste 35 Oeste 0 -- -- 35
2019-06-14 19:00:00 20.9 18 Noroeste 39 Oeste 0 -- -- 34
2019-06-14 18:00:00 21.3 22 Noroeste 48 Sudoeste 0 -- -- 33
2019-06-14 17:00:00 21.7 22 Oeste 39 Oeste 0 -- -- 32
2019-06-14 16:00:00 21.6 22 Noroeste 42 Sudoeste 0 -- -- 31
2019-06-14 15:00:00 21.2 17 Sudoeste 40 Oeste 0 -- -- 34
2019-06-14 14:00:00 20.2 18 Oeste 36 Sudoeste 0 -- -- 37
2019-06-14 13:00:00 18.8 19 Sudoeste 37 Oeste 0 -- -- 39
2019-06-14 12:00:00 17.7 15 Sudoeste 27 Oeste 0 -- -- 42
2019-06-14 11:00:00 16.3 10 Oeste 30 Oeste 0 -- -- 44
2019-06-14 10:00:00 14.9 11 Sudoeste 23 Oeste 0 -- -- 48
2019-06-14 09:00:00 13.5 14 Oeste 23 Oeste 0 -- -- 54
2019-06-14 08:00:00 11.9 9 Noroeste 18 Oeste 0 -- -- 66
2019-06-14 07:00:00 10.4 9 Sudoeste 13 Sudoeste 0 -- -- 69
2019-06-14 06:00:00 11.2 9 Oeste 12 Oeste 0 -- -- 67
2019-06-14 05:00:00 12 8 Noroeste 19 Oeste 0 -- -- 63
2019-06-14 04:00:00 13.2 12 Oeste 21 Oeste 0 -- -- 59
2019-06-14 03:00:00 14 7 Noroeste 29 Oeste 0 -- -- 57
2019-06-14 02:00:00 15.7 22 Oeste 36 Oeste 0 -- -- 50
2019-06-14 01:00:00 17.8 13 Oeste 29 Oeste 0 -- -- 38
2019-06-14 00:00:00 17.8 10 Oeste 15 Oeste 0 -- -- 34
2019-06-13 23:00:00 19.8 11 Oeste 24 Oeste 0 -- -- 29
2019-06-13 22:00:00 21.7 9 Oeste 31 Noroeste 0 -- -- 27
2019-06-13 21:00:00 24.2 16 Noroeste 27 Noroeste 0 -- -- 26
2019-06-13 20:00:00 24.9 18 Noroeste 28 Noroeste 0 -- -- 28
2019-06-13 19:00:00 27 16 Noroeste 25 Noroeste 0 -- -- 26
2019-06-13 18:00:00 28 15 Sudoeste 31 Sudoeste 0 -- -- 28
2019-06-13 17:00:00 27.7 8 Oeste 34 Sudeste 0 -- -- 27
2019-06-13 16:00:00 26.9 9 Sudoeste 26 Sur 0 -- -- 28
2019-06-13 15:00:00 26.8 18 Sudoeste 32 Sudoeste 0 -- -- 29
2019-06-13 14:00:00 25.6 9 Sur 27 Sudoeste 0 -- -- 29
2019-06-13 13:00:00 24.3 6 Oeste 22 Sudoeste 0 -- -- 29
2019-06-13 12:00:00 23.2 7 Sudoeste 27 Sudeste 0 -- -- 25
2019-06-13 11:00:00 20.7 6 Sur 12 Este 0 -- -- 30
2019-06-13 10:00:00 17.4 5 Sudoeste 15 Sudoeste 0 -- -- 36
2019-06-13 09:00:00 14.1 11 Sudoeste 17 Sudoeste 0 -- -- 47
2019-06-13 08:00:00 11.4 0 Calma 10 Sudoeste 0 -- -- 57
2019-06-13 07:00:00 10 4 Sudoeste 11 Sudoeste 0 -- -- 60
2019-06-13 06:00:00 11.4 5 Oeste 20 Sudoeste 0 -- -- 56
2019-06-13 05:00:00 12.6 14 Sudoeste 20 Sudoeste 0 -- -- 53
2019-06-13 04:00:00 14.3 10 Sudoeste 17 Sudoeste 0 -- -- 51
2019-06-13 03:00:00 15.1 4 Noroeste 17 Noroeste 0 -- -- 48
2019-06-13 02:00:00 16.8 13 Noroeste 23 Noroeste 0 -- -- 41
2019-06-13 01:00:00 17.6 7 Noroeste 27 Noroeste 0 -- -- 29
2019-06-13 00:00:00 17.2 10 Oeste 14 Oeste 0 -- -- 27
2019-06-12 23:00:00 17 2 Oeste 5 Sudeste 0 -- -- 28
2019-06-12 22:00:00 21.9 3 Noroeste 16 Noroeste 0 -- -- 22
2019-06-12 21:00:00 26.1 12 Noroeste 26 Oeste 0 -- -- 19
2019-06-12 20:00:00 27.4 15 Noroeste 32 Oeste 0 -- -- 18
2019-06-12 19:00:00 27.9 9 Oeste 31 Oeste 0 -- -- 18
2019-06-12 18:00:00 28 10 Sudoeste 30 Sudoeste 0 -- -- 18
2019-06-12 17:00:00 27.4 8 Este 31 Sudoeste 0 -- -- 19
2019-06-12 16:00:00 27.2 10 Sudoeste 28 Sur 0 -- -- 19
2019-06-12 15:00:00 26.1 12 Sur 31 Sudoeste 0 -- -- 20
2019-06-12 14:00:00 25.4 10 Sudoeste 30 Sudoeste 0 -- -- 22
2019-06-12 13:00:00 24.1 9 Sur 30 Sur 0 -- -- 24
2019-06-12 12:00:00 23.3 6 Oeste 26 Sudoeste 0 -- -- 25
2019-06-12 11:00:00 22.3 8 Sur 20 Sudoeste 0 -- -- 28
2019-06-12 10:00:00 20 3 Este 8 Sudeste 0 -- -- 26
2019-06-12 09:00:00 17.4 5 Nordeste 9 Este 0 -- -- 30
2019-06-12 08:00:00 12.4 0 Calma 6 Noroeste 0 -- -- 40
2019-06-12 07:00:00 9.8 4 Noroeste 5 Noroeste 0 -- -- 43
2019-06-12 06:00:00 11.6 4 Noroeste 6 Noroeste 0 -- -- 38
2019-06-12 05:00:00 12.4 4 Norte 7 Noroeste 0 -- -- 35
2019-06-12 04:00:00 12.8 3 Noroeste 8 Noroeste 0 -- -- 34
2019-06-12 03:00:00 13.3 5 Noroeste 9 Norte 0 -- -- 35
2019-06-12 02:00:00 15 6 Noroeste 17 Nordeste 0 -- -- 34
2019-06-12 01:00:00 17.6 9 Norte 21 Norte 0 -- -- 30
2019-06-12 00:00:00 19.9 14 Norte 24 Norte 0 -- -- 26
2019-06-11 23:00:00 21.2 12 Norte 22 Nordeste 0 -- -- 28
2019-06-11 22:00:00 21.9 9 Norte 32 Noroeste 0 -- -- 31
2019-06-11 21:00:00 23.3 17 Noroeste 31 Noroeste 0 -- -- 27
2019-06-11 20:00:00 24.7 15 Norte 28 Norte 0 -- -- 27
2019-06-11 19:00:00 25 16 Noroeste 33 Noroeste 0 -- -- 22
2019-06-11 18:00:00 24.7 17 Noroeste 36 Noroeste 0 -- -- 25
2019-06-11 17:00:00 24.3 22 Noroeste 37 Noroeste 0 -- -- 26
2019-06-11 16:00:00 24.2 23 Norte 40 Oeste 0 -- -- 28
2019-06-11 15:00:00 23.4 21 Noroeste 35 Noroeste 0 -- -- 31
2019-06-11 14:00:00 22.8 23 Norte 39 Norte 0 -- -- 35
2019-06-11 13:00:00 21.5 17 Norte 34 Noroeste 0 -- -- 39
2019-06-11 12:00:00 19.7 22 Noroeste 39 Oeste 0 -- -- 44
2019-06-11 11:00:00 18.8 14 Noroeste 21 Oeste 0 -- -- 45
2019-06-11 10:00:00 16.4 14 Noroeste 23 Noroeste 0 -- -- 51
2019-06-11 09:00:00 14.5 6 Oeste 17 Sudoeste 0 -- -- 56
2019-06-11 08:00:00 13 6 Sur 15 Sudoeste 0 -- -- 59
2019-06-11 07:00:00 11.5 9 Oeste 25 Oeste 0 -- -- 62
2019-06-11 06:00:00 12.1 18 Oeste 30 Oeste 0 -- -- 60
2019-06-11 05:00:00 12.6 22 Oeste 32 Oeste 0 -- -- 58
2019-06-11 04:00:00 13.2 19 Oeste 30 Sudoeste 0 -- -- 53
2019-06-11 03:00:00 14.9 18 Oeste 31 Oeste 0 -- -- 47
2019-06-11 02:00:00 16.2 8 Noroeste 31 Noroeste 0 -- -- 44
2019-06-11 01:00:00 17.7 20 Oeste 44 Oeste 0 -- -- 41
2019-06-11 00:00:00 19.5 22 Oeste 39 Oeste 0 -- -- 37
2019-06-10 23:00:00 20.5 14 Oeste 20 Oeste 0 -- -- 34
2019-06-10 22:00:00 21.9 13 Oeste 21 Oeste 0 -- -- 29
2019-06-10 21:00:00 24.1 14 Noroeste 26 Oeste 0 -- -- 25
2019-06-10 20:00:00 25.8 13 Oeste 32 Oeste 0 -- -- 23
2019-06-10 19:00:00 26 22 Oeste 34 Oeste 0 -- -- 24
2019-06-10 18:00:00 25.9 14 Oeste 31 Sudoeste 0 -- -- 26
2019-06-10 17:00:00 25.5 11 Noroeste 30 Noroeste 0 -- -- 29
2019-06-10 16:00:00 25.1 14 Oeste 30 Oeste 0 -- -- 27
2019-06-10 15:00:00 24.4 15 Norte 27 Norte 0 -- -- 29
2019-06-10 14:00:00 23.5 12 Norte 31 Noroeste 0 -- -- 32
2019-06-10 13:00:00 22.5 15 Norte 27 Noroeste 0 -- -- 34
2019-06-10 12:00:00 20.7 15 Oeste 27 Oeste 0 -- -- 41
2019-06-10 11:00:00 18.8 14 Oeste 21 Oeste 0 -- -- 48
2019-06-10 10:00:00 17.3 16 Oeste 24 Oeste 0 -- -- 57
2019-06-10 09:00:00 15.4 10 Sudoeste 17 Sudoeste 0 -- -- 64
2019-06-10 08:00:00 12.7 5 Oeste 13 Sudoeste 0 -- -- 74
2019-06-10 07:00:00 11.3 4 Nordeste 24 Oeste 0 -- -- 76
2019-06-10 06:00:00 12.2 3 Este 24 Oeste 0 -- -- 71
2019-06-10 05:00:00 13.1 10 Oeste 21 Oeste 0 -- -- 69
2019-06-10 04:00:00 14 14 Oeste 26 Oeste 0 -- -- 64
2019-06-10 03:00:00 15.2 18 Oeste 32 Oeste 0 -- -- 58
2019-06-10 02:00:00 16.5 14 Noroeste 35 Oeste 0 -- -- 53
2019-06-10 01:00:00 17.5 21 Oeste 37 Oeste 0 -- -- 50
2019-06-10 00:00:00 18.6 19 Oeste 36 Noroeste 0 -- -- 44
2019-06-09 23:00:00 19.8 23 Noroeste 36 Noroeste 0 -- -- 41
2019-06-09 22:00:00 21 21 Noroeste 31 Noroeste 0 -- -- 37
2019-06-09 21:00:00 23.2 19 Noroeste 36 Noroeste 0 -- -- 31
2019-06-09 20:00:00 24.5 19 Noroeste 35 Oeste 0 -- -- 27
2019-06-09 19:00:00 25.4 17 Oeste 37 Noroeste 0 -- -- 26
2019-06-09 18:00:00 25.6 18 Noroeste 34 Oeste 0 -- -- 25
2019-06-09 17:00:00 26 16 Oeste 31 Noroeste 0 -- -- 24
2019-06-09 16:00:00 25.7 19 Oeste 38 Oeste 0 -- -- 24
2019-06-09 15:00:00 25.3 20 Oeste 34 Oeste 0 -- -- 19
2019-06-09 14:00:00 24.5 14 Oeste 34 Sudoeste 0 -- -- 19
2019-06-09 13:00:00 22.7 18 Sudoeste 30 Sudoeste 0 -- -- 27
2019-06-09 12:00:00 21.4 17 Sudoeste 29 Sudoeste 0 -- -- 29
2019-06-09 11:00:00 20.2 16 Sudoeste 25 Sudoeste 0 -- -- 33
2019-06-09 10:00:00 18.3 15 Sudoeste 23 Sudoeste 0 -- -- 38
2019-06-09 09:00:00 15.4 14 Sudoeste 18 Sudoeste 0 -- -- 47
2019-06-09 08:00:00 13.1 8 Sudoeste 15 Sudoeste 0 -- -- 55
2019-06-09 07:00:00 11.6 6 Sudoeste 15 Sudoeste 0 -- -- 60
2019-06-09 06:00:00 12.9 13 Sudoeste 17 Sudoeste 0 -- -- 56
2019-06-09 05:00:00 13.3 3 Oeste 8 Sudoeste 0 -- -- 57
2019-06-09 04:00:00 15 7 Noroeste 19 Oeste 0 -- -- 53
2019-06-09 03:00:00 15.9 4 Sudeste 39 Sudoeste 0 -- -- 52
2019-06-09 02:00:00 17.2 27 Sudoeste 37 Sudoeste 0 -- -- 48
2019-06-09 01:00:00 19.5 14 Oeste 24 Oeste 0 -- -- 34
2019-06-09 00:00:00 19.4 13 Oeste 20 Oeste 0 -- -- 30
2019-06-08 23:00:00 18.9 5 Oeste 7 Oeste 0 -- -- 32
2019-06-08 22:00:00 22.4 7 Oeste 33 Sudoeste 0 -- -- 27
2019-06-08 21:00:00 27.5 14 Sudoeste 29 Sur 0 -- -- 17
2019-06-08 20:00:00 29.2 8 Sudoeste 26 Sudoeste 0 -- -- 16
2019-06-08 19:00:00 29.3 17 Sudoeste 24 Oeste 0 -- -- 17
2019-06-08 18:00:00 29.6 9 Sudoeste 31 Sudoeste 0 -- -- 15
2019-06-08 17:00:00 28.7 13 Noroeste 24 Oeste 0 -- -- 17
2019-06-08 16:00:00 27.5 8 Oeste 23 Sudoeste 0 -- -- 18
2019-06-08 15:00:00 26.9 9 Oeste 26 Oeste 0 -- -- 19
2019-06-08 14:00:00 25.4 7 Sudoeste 19 Sudoeste 0 -- -- 21
2019-06-08 13:00:00 24.6 8 Sur 27 Sudoeste 0 -- -- 22
2019-06-08 12:00:00 24.1 9 Sur 22 Sur 0 -- -- 23
2019-06-08 11:00:00 22 4 Norte 13 Este 0 -- -- 26
2019-06-08 10:00:00 20.4 5 Este 15 Norte 0 -- -- 30
2019-06-08 09:00:00 18.3 2 Nordeste 5 Nordeste 0 -- -- 36
2019-06-08 08:00:00 12.5 0 Calma 7 Oeste 0 -- -- 48
2019-06-08 07:00:00 9.7 2 Oeste 5 Oeste 0 -- -- 55
2019-06-08 06:00:00 10.4 4 Oeste 8 Oeste 0 -- -- 51
2019-06-08 05:00:00 9 0 Calma 3 Sudoeste 0 -- -- 56
2019-06-08 04:00:00 11.7 0 Calma 7 Noroeste 0 -- -- 48
2019-06-08 03:00:00 13.2 3 Noroeste 11 Oeste 0 -- -- 44
2019-06-08 02:00:00 12.4 8 Oeste 10 Noroeste 0 -- -- 45
2019-06-08 01:00:00 12.1 3 Noroeste 6 Oeste 0 -- -- 46
2019-06-08 00:00:00 13.4 4 Oeste 7 Oeste 0 -- -- 41
2019-06-07 23:00:00 14.4 5 Oeste 8 Oeste 0 -- -- 38
2019-06-07 22:00:00 17.7 5 Norte 16 Norte 0 -- -- 32
2019-06-07 21:00:00 21 12 Norte 21 Noroeste 0 -- -- 28
2019-06-07 20:00:00 21.9 12 Norte 24 Norte 0 -- -- 27
2019-06-07 19:00:00 22.1 10 Norte 23 Nordeste 0 -- -- 26
2019-06-07 18:00:00 22.1 11 Noroeste 27 Noroeste 0 -- -- 27
2019-06-07 17:00:00 21.7 10 Norte 30 Norte 0 -- -- 27
2019-06-07 16:00:00 21.4 12 Norte 28 Noroeste 0 -- -- 28
2019-06-07 15:00:00 20 13 Noroeste 26 Noroeste 0 -- -- 32
2019-06-07 14:00:00 18.6 8 Noroeste 23 Norte 0 -- -- 36
2019-06-07 13:00:00 17.2 11 Noroeste 24 Oeste 0 -- -- 42
2019-06-07 12:00:00 16.1 12 Noroeste 29 Norte 0 -- -- 46
2019-06-07 11:00:00 14.8 10 Noroeste 29 Noroeste 0 -- -- 51
2019-06-07 10:00:00 13.6 15 Noroeste 28 Noroeste 0 -- -- 58
2019-06-07 09:00:00 11.8 16 Oeste 27 Noroeste 0 -- -- 70
2019-06-07 08:00:00 10.4 14 Noroeste 23 Oeste 0 -- -- 80
2019-06-07 07:00:00 10.2 16 Oeste 23 Oeste 0 -- -- 82
2019-06-07 06:00:00 11 14 Oeste 25 Oeste 0 -- -- 81
2019-06-07 05:00:00 10.5 16 Oeste 33 Noroeste 0 -- -- 83
2019-06-07 04:00:00 11.1 25 Noroeste 37 Noroeste 0 -- -- 89
2019-06-07 03:00:00 14.6 24 Noroeste 43 Oeste 0 -- -- 79
2019-06-07 02:00:00 16.2 13 Sudoeste 38 Sudoeste 0 -- -- 64
2019-06-07 01:00:00 16.6 12 Oeste 39 Oeste 0 -- -- 60
2019-06-07 00:00:00 17.4 28 Oeste 43 Oeste 0 -- -- 56
2019-06-06 23:00:00 18.3 30 Oeste 44 Oeste 0 -- -- 49
2019-06-06 22:00:00 19.8 25 Oeste 44 Oeste 0 -- -- 42
2019-06-06 21:00:00 21.7 28 Oeste 49 Oeste 0 -- -- 36
2019-06-06 20:00:00 23.4 23 Oeste 45 Oeste 0 -- -- 29
2019-06-06 19:00:00 24.8 23 Sudoeste 40 Sudoeste 0 -- -- 24
2019-06-06 18:00:00 25.1 23 Sudoeste 40 Sudoeste 0 -- -- 22
2019-06-06 17:00:00 24.9 23 Sudoeste 42 Sudoeste 0 -- -- 22
2019-06-06 16:00:00 24.3 22 Sudoeste 38 Sudoeste 0 -- -- 20
2019-06-06 15:00:00 23.2 21 Sudoeste 36 Sudoeste 0 -- -- 23
2019-06-06 14:00:00 21.8 15 Sudoeste 33 Sudoeste 0 -- -- 23
2019-06-06 13:00:00 19.8 18 Sudoeste 37 Sudoeste 0 -- -- 30
2019-06-06 12:00:00 18.6 9 Sudoeste 21 Sudoeste 0 -- -- 33
2019-06-06 11:00:00 16.5 8 Sudoeste 15 Sudoeste 0 -- -- 38
2019-06-06 10:00:00 15.2 5 Sur 9 Sudoeste 0 -- -- 46
2019-06-06 09:00:00 12.3 6 Sudoeste 12 Sur 0 -- -- 58
2019-06-06 08:00:00 10.9 2 Este 6 Oeste 0 -- -- 63
2019-06-06 07:00:00 9.3 2 Este 14 Oeste 0 -- -- 68
2019-06-06 06:00:00 9.6 6 Oeste 12 Oeste 0 -- -- 66
2019-06-06 05:00:00 10.4 6 Oeste 17 Oeste 0 -- -- 61
2019-06-06 04:00:00 11.6 6 Noroeste 22 Noroeste 0 -- -- 55
2019-06-06 03:00:00 12.9 15 Noroeste 25 Noroeste 0 -- -- 50
2019-06-06 02:00:00 13.9 16 Noroeste 28 Oeste 0 -- -- 49
2019-06-06 01:00:00 14.8 12 Noroeste 20 Oeste 0 -- -- 45
2019-06-06 00:00:00 15.6 10 Noroeste 19 Oeste 0 -- -- 41
2019-06-05 23:00:00 15.5 8 Noroeste 18 Oeste 0 -- -- 40
2019-06-05 22:00:00 17.2 10 Noroeste 26 Noroeste 0 -- -- 38
2019-06-05 21:00:00 19.2 13 Noroeste 28 Oeste 0 -- -- 34
2019-06-05 20:00:00 20 17 Noroeste 31 Noroeste 0 -- -- 32
2019-06-05 19:00:00 20.7 16 Oeste 31 Oeste 0 -- -- 30
2019-06-05 18:00:00 21.1 14 Noroeste 32 Oeste 0 -- -- 30
2019-06-05 17:00:00 20 21 Noroeste 35 Oeste 0 -- -- 34
2019-06-05 16:00:00 20.5 17 Noroeste 44 Noroeste 0 -- -- 35
2019-06-05 15:00:00 18.7 19 Noroeste 35 Oeste 0 -- -- 40
2019-06-05 14:00:00 18.9 19 Noroeste 38 Noroeste 0 -- -- 40
2019-06-05 13:00:00 18.1 19 Noroeste 39 Noroeste 0 -- -- 41
2019-06-05 12:00:00 16.6 17 Noroeste 36 Noroeste 0 -- -- 47
2019-06-05 11:00:00 14.9 23 Oeste 35 Oeste 0 -- -- 55
2019-06-05 10:00:00 13.9 21 Noroeste 34 Noroeste 0 -- -- 61
2019-06-05 09:00:00 11.9 21 Noroeste 36 Noroeste 0 -- -- 72
2019-06-05 08:00:00 10.8 17 Noroeste 33 Oeste 0 -- -- 77
2019-06-05 07:00:00 10.1 20 Oeste 36 Oeste 0 -- -- 80
2019-06-05 06:00:00 10.3 18 Oeste 39 Oeste 0 -- -- 81
2019-06-05 05:00:00 10.7 13 Oeste 37 Oeste 0 -- -- 75
2019-06-05 04:00:00 11.4 17 Oeste 36 Noroeste 0 -- -- 69
2019-06-05 03:00:00 12.4 13 Oeste 40 Oeste 0 -- -- 63
2019-06-05 02:00:00 14 18 Noroeste 41 Oeste 0 -- -- 56
2019-06-05 01:00:00 15.9 29 Noroeste 46 Oeste 0 -- -- 59
2019-06-05 00:00:00 16.5 12 Oeste 32 Oeste 0 -- -- 67
2019-06-04 23:00:00 17.8 15 Oeste 35 Noroeste 0 -- -- 60
2019-06-04 22:00:00 18.2 25 Noroeste 44 Noroeste 0 -- -- 62
2019-06-04 21:00:00 20 25 Noroeste 45 Noroeste 0 -- -- 59
2019-06-04 20:00:00 23.6 24 Oeste 44 Oeste 0 -- -- 44
2019-06-04 19:00:00 25.9 27 Noroeste 43 Oeste 0 -- -- 41
2019-06-04 18:00:00 26.9 24 Noroeste 44 Oeste 0 -- -- 38
2019-06-04 17:00:00 28.2 21 Oeste 38 Oeste 0 -- -- 34
2019-06-04 16:00:00 27.7 15 Oeste 33 Oeste 0 -- -- 34
2019-06-04 15:00:00 26.2 16 Oeste 33 Oeste 0 -- -- 38
2019-06-04 14:00:00 25.4 17 Oeste 30 Oeste 0 -- -- 39
2019-06-04 13:00:00 24.8 12 Sudoeste 24 Oeste 0 -- -- 36
2019-06-04 12:00:00 23 9 Oeste 24 Oeste 0 -- -- 45
2019-06-04 11:00:00 20.6 12 Oeste 25 Oeste 0 -- -- 59
2019-06-04 10:00:00 18.7 16 Oeste 24 Oeste 0 -- -- 69
2019-06-04 09:00:00 17.2 15 Noroeste 24 Noroeste 0 -- -- 78
2019-06-04 08:00:00 16.6 7 Oeste 12 Oeste 0 -- -- 79
2019-06-04 07:00:00 15 3 Sudoeste 9 Sudoeste 0 -- -- 81
2019-06-04 06:00:00 14.8 6 Sudoeste 9 Sudoeste 0 -- -- 84
2019-06-04 05:00:00 15.8 5 Oeste 8 Oeste 0 -- -- 78
2019-06-04 04:00:00 18.1 8 Oeste 18 Oeste 0 -- -- 72
2019-06-04 03:00:00 19.2 9 Sudoeste 14 Oeste 0 -- -- 46
2019-06-04 02:00:00 20.6 11 Oeste 19 Oeste 0 -- -- 42
2019-06-04 01:00:00 22.4 7 Oeste 21 Oeste 0 -- -- 34
2019-06-04 00:00:00 23.5 9 Oeste 18 Oeste 0 -- -- 30
2019-06-03 23:00:00 23.9 10 Sudoeste 17 Sudoeste 0 -- -- 27
2019-06-03 22:00:00 28.7 12 Oeste 31 Oeste 0 -- -- 21
2019-06-03 21:00:00 31.4 15 Oeste 29 Oeste 0 -- -- 19
2019-06-03 20:00:00 33.2 9 Sur 33 Sudoeste 0 -- -- 17
2019-06-03 19:00:00 33.9 13 Sudoeste 35 Oeste 0 -- -- 16
2019-06-03 18:00:00 34.7 14 Sudoeste 27 Sudoeste 0 -- -- 15
2019-06-03 17:00:00 34.5 12 Sudoeste 34 Sur 0 -- -- 16
2019-06-03 16:00:00 33.6 10 Oeste 28 Sudoeste 0 -- -- 17
2019-06-03 15:00:00 32.9 13 Oeste 32 Oeste 0 -- -- 18
2019-06-03 14:00:00 32.5 11 Sudoeste 24 Oeste 0 -- -- 18
2019-06-03 13:00:00 31.8 9 Sur 21 Sur 0 -- -- 18
2019-06-03 12:00:00 30.7 5 Nordeste 9 Este 0 -- -- 18
2019-06-03 11:00:00 27.5 4 Sur 9 Sudeste 0 -- -- 24
2019-06-03 10:00:00 25.6 4 Nordeste 10 Sudoeste 0 -- -- 31
2019-06-03 09:00:00 21.6 0 Calma 16 Sudoeste 0 -- -- 37
2019-06-03 08:00:00 18.4 8 Sudoeste 11 Sudoeste 0 -- -- 43
2019-06-03 07:00:00 17.5 11 Sudoeste 19 Sudoeste 0 -- -- 45
2019-06-03 06:00:00 19.4 14 Sudoeste 21 Sudoeste 0 -- -- 41
2019-06-03 05:00:00 21.1 9 Oeste 18 Oeste 0 -- -- 37
2019-06-03 04:00:00 22.6 9 Noroeste 17 Noroeste 0 -- -- 34
2019-06-03 03:00:00 23.9 9 Noroeste 25 Oeste 0 -- -- 30
2019-06-03 02:00:00 23.6 9 Oeste 16 Oeste 0 -- -- 31
2019-06-03 01:00:00 24.8 9 Noroeste 18 Sudoeste 0 -- -- 28
2019-06-03 00:00:00 25.7 11 Sudoeste 17 Oeste 0 -- -- 26
2019-06-02 23:00:00 27.2 12 Sur 18 Sur 0 -- -- 24
2019-06-02 22:00:00 28.8 14 Sudoeste 19 Sur 0 -- -- 24
2019-06-02 21:00:00 31.2 7 Noroeste 20 Sudoeste 0 -- -- 22
2019-06-02 20:00:00 34.1 8 Sudoeste 20 Sur 0 -- -- 18
2019-06-02 19:00:00 34 12 Este 21 Este 0 -- -- 17
2019-06-02 18:00:00 34.4 12 Sudeste 26 Sudoeste 0 -- -- 17
2019-06-02 17:00:00 34.2 8 Sudeste 21 Sur 0 -- -- 17
2019-06-02 16:00:00 33.7 11 Este 22 Sudeste 0 -- -- 17
2019-06-02 15:00:00 33.7 6 Sur 30 Sur 0 -- -- 18
2019-06-02 14:00:00 32.6 8 Sur 21 Sur 0 -- -- 20
2019-06-02 13:00:00 31.2 7 Sudeste 18 Sur 0 -- -- 21
2019-06-02 12:00:00 29.4 9 Sur 23 Sur 0 -- -- 22
2019-06-02 11:00:00 27.2 12 Sur 21 Sur 0 -- -- 24
2019-06-02 10:00:00 24.1 7 Sur 13 Sur 0 -- -- 29
2019-06-02 09:00:00 20.6 2 Nordeste 4 Nordeste 0 -- -- 37
2019-06-02 08:00:00 14.9 3 Oeste 5 Este 0 -- -- 52
2019-06-02 07:00:00 12.8 3 Noroeste 6 Noroeste 0 -- -- 55
2019-06-02 06:00:00 13.8 4 Noroeste 6 Oeste 0 -- -- 51
2019-06-02 05:00:00 14.5 0 Calma 6 Este 0 -- -- 48
2019-06-02 04:00:00 14.8 4 Noroeste 7 Oeste 0 -- -- 48
2019-06-02 03:00:00 16.2 2 Noroeste 5 Sudoeste 0 -- -- 44
2019-06-02 02:00:00 18.4 4 Oeste 9 Sudoeste 0 -- -- 41
2019-06-02 01:00:00 23 2 Sudeste 21 Sudoeste 0 -- -- 32
2019-06-02 00:00:00 23.8 14 Sudoeste 22 Sur 0 -- -- 31
2019-06-01 23:00:00 25.8 14 Sur 27 Sudoeste 0 -- -- 29
2019-06-01 22:00:00 25.9 3 Noroeste 10 Nordeste 0 -- -- 25
2019-06-01 21:00:00 32.4 8 Nordeste 19 Nordeste 0 -- -- 18
2019-06-01 20:00:00 33.4 12 Norte 22 Norte 0 -- -- 18
2019-06-01 19:00:00 33.9 8 Sudoeste 23 Este 0 -- -- 18
2019-06-01 18:00:00 33.6 10 Nordeste 23 Nordeste 0 -- -- 18
2019-06-01 17:00:00 33.3 13 Sudeste 29 Nordeste 0 -- -- 18
2019-06-01 16:00:00 32.6 11 Este 31 Nordeste 0 -- -- 18
2019-06-01 15:00:00 32 12 Nordeste 33 Este 0 -- -- 20
2019-06-01 14:00:00 30.9 9 Sudeste 21 Norte 0 -- -- 22
2019-06-01 13:00:00 29.6 9 Nordeste 20 Este 0 -- -- 24
2019-06-01 12:00:00 28.3 9 Este 21 Nordeste 0 -- -- 26
2019-06-01 11:00:00 26.2 8 Este 15 Este 0 -- -- 30
2019-06-01 10:00:00 23.2 5 Este 9 Este 0 -- -- 35
2019-06-01 09:00:00 19.9 0 Calma 6 Este 0 -- -- 42
2019-06-01 08:00:00 14.8 2 Este 6 Este 0 -- -- 54
2019-06-01 07:00:00 11.8 0 Calma 5 Oeste 0 -- -- 62
2019-06-01 06:00:00 12 3 Noroeste 4 Oeste 0 -- -- 61
2019-06-01 05:00:00 12.6 2 Noroeste 6 Oeste 0 -- -- 58
2019-06-01 04:00:00 13.8 2 Noroeste 5 Noroeste 0 -- -- 54
2019-06-01 03:00:00 15.4 0 Calma 5 Noroeste 0 -- -- 49
2019-06-01 02:00:00 17.4 2 Noroeste 6 Noroeste 0 -- -- 44
2019-06-01 01:00:00 18.8 0 Calma 5 Sudoeste 0 -- -- 41
2019-06-01 00:00:00 23.8 3 Sudeste 25 Sur 0 -- -- 32
2019-05-31 23:00:00 25.3 19 Sur 25 Sur 0 -- -- 30
2019-05-31 22:00:00 26 2 Nordeste 19 Nordeste 0 -- -- 23
2019-05-31 21:00:00 31.3 11 Nordeste 22 Nordeste 0 -- -- 17
2019-05-31 20:00:00 32.5 15 Nordeste 27 Norte 0 -- -- 16
2019-05-31 19:00:00 32.6 10 Nordeste 32 Nordeste 0 -- -- 15
2019-05-31 18:00:00 33.2 14 Nordeste 36 Nordeste 0 -- -- 17
2019-05-31 17:00:00 32.7 13 Nordeste 33 Nordeste 0 -- -- 18
2019-05-31 16:00:00 31.8 9 Nordeste 39 Este 0 -- -- 19
2019-05-31 15:00:00 31.6 16 Nordeste 33 Este 0 -- -- 21
2019-05-31 14:00:00 30.6 16 Nordeste 33 Norte 0 -- -- 22
2019-05-31 13:00:00 29.1 14 Nordeste 25 Nordeste 0 -- -- 25
2019-05-31 12:00:00 27.6 10 Nordeste 19 Nordeste 0 -- -- 28
2019-05-31 11:00:00 25.6 10 Nordeste 18 Nordeste 0 -- -- 36
2019-05-31 10:00:00 23.1 10 Este 15 Este 0 -- -- 40
2019-05-31 09:00:00 19.6 3 Nordeste 5 Nordeste 0 -- -- 47
2019-05-31 08:00:00 13.6 3 Noroeste 5 Oeste 0 -- -- 67
2019-05-31 07:00:00 10.8 4 Noroeste 6 Noroeste 0 -- -- 74
2019-05-31 06:00:00 12 0 Calma 4 Oeste 0 -- -- 70
2019-05-31 05:00:00 12.7 3 Noroeste 6 Oeste 0 -- -- 66
2019-05-31 04:00:00 15.8 0 Calma 7 Sur 0 -- -- 54
2019-05-31 03:00:00 17.9 2 Este 15 Sur 0 -- -- 51
2019-05-31 02:00:00 19.3 4 Sudeste 25 Sur 0 -- -- 48
2019-05-31 01:00:00 17.5 2 Sudoeste 9 Oeste 0 -- -- 49
2019-05-31 00:00:00 22.4 4 Sudeste 16 Sur 0 -- -- 36
2019-05-30 23:00:00 19.8 2 Sur 4 Nordeste 0 -- -- 34
2019-05-30 22:00:00 26.1 4 Nordeste 18 Nordeste 0 -- -- 24
2019-05-30 21:00:00 30 14 Nordeste 30 Nordeste 0 -- -- 20
2019-05-30 20:00:00 31 15 Nordeste 29 Nordeste 0 -- -- 19
2019-05-30 19:00:00 31.4 16 Nordeste 33 Nordeste 0 -- -- 19
2019-05-30 18:00:00 31.7 17 Nordeste 32 Nordeste 0 -- -- 18
2019-05-30 17:00:00 31.3 18 Nordeste 33 Norte 0 -- -- 18
2019-05-30 16:00:00 30.6 17 Nordeste 32 Nordeste 0 -- -- 19
2019-05-30 15:00:00 29.9 15 Nordeste 32 Nordeste 0 -- -- 20
2019-05-30 14:00:00 28.9 16 Nordeste 30 Nordeste 0 -- -- 23
2019-05-30 13:00:00 27.7 14 Nordeste 28 Nordeste 0 -- -- 24
2019-05-30 12:00:00 26.2 14 Este 36 Este 0 -- -- 26
2019-05-30 11:00:00 24.2 12 Nordeste 24 Nordeste 0 -- -- 31
2019-05-30 10:00:00 21.9 15 Este 23 Este 0 -- -- 35
2019-05-30 09:00:00 20.2 14 Nordeste 24 Nordeste 0 -- -- 37
2019-05-30 08:00:00 17.2 3 Noroeste 13 Este 0 -- -- 44
2019-05-30 07:00:00 17.1 8 Este 21 Nordeste 0 -- -- 42
2019-05-30 06:00:00 16.4 2 Nordeste 11 Nordeste 0 -- -- 42
2019-05-30 05:00:00 15.7 2 Sur 4 Este 0 -- -- 44
2019-05-30 04:00:00 15.6 2 Este 5 Sudeste 0 -- -- 43
2019-05-30 03:00:00 14.8 0 Calma 4 Sur 0 -- -- 45
2019-05-30 02:00:00 16.2 0 Calma 5 Este 0 -- -- 40
2019-05-30 01:00:00 18.8 0 Calma 8 Este 0 -- -- 35
2019-05-30 00:00:00 19.5 4 Este 8 Este 0 -- -- 33
2019-05-29 23:00:00 21.1 3 Norte 7 Norte 0 -- -- 30
2019-05-29 22:00:00 25 6 Norte 21 Nordeste 0 -- -- 25
2019-05-29 21:00:00 28.2 15 Nordeste 28 Nordeste 0 -- -- 21
2019-05-29 20:00:00 29.2 18 Nordeste 30 Este 0 -- -- 21
2019-05-29 19:00:00 29.6 16 Nordeste 32 Nordeste 0 -- -- 21
2019-05-29 18:00:00 29.5 19 Nordeste 37 Este 0 -- -- 21
2019-05-29 17:00:00 28.7 18 Nordeste 33 Este 0 -- -- 22
2019-05-29 16:00:00 27.5 18 Este 35 Nordeste 0 -- -- 23
2019-05-29 15:00:00 26.9 22 Nordeste 39 Nordeste 0 -- -- 23
2019-05-29 14:00:00 26.3 22 Nordeste 35 Nordeste 0 -- -- 24
2019-05-29 13:00:00 24.9 22 Nordeste 45 Nordeste 0 -- -- 26
2019-05-29 12:00:00 23.3 20 Nordeste 40 Nordeste 0 -- -- 28
2019-05-29 11:00:00 22 25 Nordeste 38 Nordeste 0 -- -- 30
2019-05-29 10:00:00 20.4 26 Nordeste 39 Nordeste 0 -- -- 32
2019-05-29 09:00:00 18.6 26 Nordeste 39 Nordeste 0 -- -- 36
2019-05-29 08:00:00 17.5 15 Nordeste 26 Este 0 -- -- 38
2019-05-29 07:00:00 16.9 15 Nordeste 27 Nordeste 0 -- -- 40
2019-05-29 06:00:00 17.6 15 Nordeste 25 Este 0 -- -- 38
2019-05-29 05:00:00 18.6 14 Nordeste 33 Nordeste 0 -- -- 35
2019-05-29 04:00:00 19.4 14 Este 23 Nordeste 0 -- -- 32
2019-05-29 03:00:00 20.7 13 Este 30 Nordeste 0 -- -- 31
2019-05-29 02:00:00 22.2 16 Nordeste 26 Nordeste 0 -- -- 28
2019-05-29 01:00:00 21.8 5 Norte 18 Noroeste 0 -- -- 30
2019-05-29 00:00:00 23.9 10 Noroeste 24 Noroeste 0 -- -- 26
2019-05-28 23:00:00 24.4 13 Noroeste 24 Norte 0 -- -- 23
2019-05-28 22:00:00 26.1 13 Noroeste 24 Noroeste 0 -- -- 24
2019-05-28 21:00:00 29.1 14 Norte 23 Noroeste 0 -- -- 23
2019-05-28 20:00:00 30.7 13 Norte 23 Norte 0 -- -- 25
2019-05-28 19:00:00 31.3 12 Noroeste 30 Noroeste 0 -- -- 24
2019-05-28 18:00:00 31.5 13 Norte 26 Norte 0 -- -- 23
2019-05-28 17:00:00 31.5 11 Noroeste 27 Norte 0 -- -- 24
2019-05-28 16:00:00 31.4 16 Norte 30 Norte 0 -- -- 24
2019-05-28 15:00:00 30.6 13 Norte 34 Nordeste 0 -- -- 26
2019-05-28 14:00:00 29.4 11 Nordeste 25 Nordeste 0 -- -- 28
2019-05-28 13:00:00 28.8 13 Nordeste 28 Nordeste 0 -- -- 29
2019-05-28 12:00:00 27.2 8 Nordeste 19 Nordeste 0 -- -- 35
2019-05-28 11:00:00 25.4 7 Nordeste 16 Nordeste 0 -- -- 42
2019-05-28 10:00:00 23.8 9 Nordeste 21 Nordeste 0 -- -- 44
2019-05-28 09:00:00 22.2 3 Nordeste 8 Nordeste 0 -- -- 48
2019-05-28 08:00:00 17.2 0 Calma 7 Noroeste 0 -- -- 64
2019-05-28 07:00:00 15.8 4 Noroeste 6 Noroeste 0 -- -- 65
2019-05-28 06:00:00 16.3 5 Sudoeste 14 Noroeste 0 -- -- 65
2019-05-28 05:00:00 18.5 9 Noroeste 14 Noroeste 0 -- -- 58
2019-05-28 04:00:00 19.3 6 Sudoeste 21 Noroeste 0 -- -- 57
2019-05-28 03:00:00 20.9 9 Noroeste 22 Noroeste 0 -- -- 53
2019-05-28 02:00:00 20.9 12 Noroeste 25 Oeste 0 -- -- 56
2019-05-28 01:00:00 22 19 Oeste 35 Oeste 0 -- -- 52
2019-05-28 00:00:00 23.9 27 Oeste 44 Oeste 0 -- -- 43
2019-05-27 23:00:00 25.5 22 Oeste 37 Oeste 0 -- -- 39
2019-05-27 22:00:00 27 22 Oeste 36 Oeste 0 -- -- 35
2019-05-27 21:00:00 29.2 16 Noroeste 29 Oeste 0 -- -- 30
2019-05-27 20:00:00 30.5 18 Noroeste 30 Oeste 0 -- -- 27
2019-05-27 19:00:00 31 15 Noroeste 37 Noroeste 0 -- -- 25
2019-05-27 18:00:00 31.4 26 Oeste 55 Oeste 0 -- -- 25
2019-05-27 17:00:00 31.6 18 Oeste 44 Noroeste 0 -- -- 23
2019-05-27 16:00:00 31.7 18 Noroeste 36 Noroeste 0 -- -- 22
2019-05-27 15:00:00 31.3 11 Noroeste 34 Oeste 0 -- -- 23
2019-05-27 14:00:00 30.6 13 Noroeste 28 Noroeste 0 -- -- 24
2019-05-27 13:00:00 29.7 15 Noroeste 31 Noroeste 0 -- -- 26
2019-05-27 12:00:00 28.3 8 Sudoeste 15 Sudoeste 0 -- -- 25
2019-05-27 11:00:00 26.7 7 Oeste 12 Noroeste 0 -- -- 29
2019-05-27 10:00:00 24.1 7 Este 12 Este 0 -- -- 35
2019-05-27 09:00:00 19.4 3 Este 4 Este 0 -- -- 47
2019-05-27 08:00:00 13.2 0 Calma 4 Este 0 -- -- 67
2019-05-27 07:00:00 12 0 Calma 6 Oeste 0 -- -- 66
2019-05-27 06:00:00 12.5 4 Oeste 6 Oeste 0 -- -- 65
2019-05-27 05:00:00 14.4 6 Oeste 7 Oeste 0 -- -- 58
2019-05-27 04:00:00 15 3 Sudoeste 5 Oeste 0 -- -- 59
2019-05-27 03:00:00 15.3 0 Calma 4 Oeste 0 -- -- 58
2019-05-27 02:00:00 16.2 5 Oeste 6 Oeste 0 -- -- 54
2019-05-27 01:00:00 17.4 0 Calma 4 Oeste 0 -- -- 50
2019-05-27 00:00:00 18.7 2 Oeste 6 Oeste 0 -- -- 46